sensor_id;sensor_type;location;lat;lon;timestamp;P1;durP1;ratioP1;P2;durP2;ratioP2
34695;SDS011;75243;51.138;17.370;2024-03-06T00:02:33;71.30;;;44.90;;
34695;SDS011;75243;51.138;17.370;2024-03-06T00:05:36;71.00;;;42.70;;
34695;SDS011;75243;51.138;17.370;2024-03-06T00:08:36;75.40;;;42.70;;
34695;SDS011;75243;51.138;17.370;2024-03-06T00:11:37;65.90;;;40.20;;
34695;SDS011;75243;51.138;17.370;2024-03-06T00:14:38;75.40;;;44.70;;
34695;SDS011;75243;51.138;17.370;2024-03-06T00:17:38;83.30;;;46.10;;
34695;SDS011;75243;51.138;17.370;2024-03-06T00:20:39;79.50;;;45.70;;
34695;SDS011;75243;51.138;17.370;2024-03-06T00:23:42;78.50;;;46.20;;
34695;SDS011;75243;51.138;17.370;2024-03-06T00:26:43;71.50;;;43.40;;
34695;SDS011;75243;51.138;17.370;2024-03-06T00:29:44;84.40;;;49.40;;
34695;SDS011;75243;51.138;17.370;2024-03-06T00:32:47;79.60;;;48.50;;
34695;SDS011;75243;51.138;17.370;2024-03-06T00:35:48;81.80;;;47.80;;
34695;SDS011;75243;51.138;17.370;2024-03-06T00:38:49;78.60;;;46.80;;
34695;SDS011;75243;51.138;17.370;2024-03-06T00:41:49;78.90;;;45.90;;
34695;SDS011;75243;51.138;17.370;2024-03-06T00:44:50;79.40;;;47.20;;
34695;SDS011;75243;51.138;17.370;2024-03-06T00:50:51;73.00;;;45.20;;
34695;SDS011;75243;51.138;17.370;2024-03-06T00:53:51;79.90;;;46.70;;
34695;SDS011;75243;51.138;17.370;2024-03-06T00:56:52;79.70;;;46.80;;
34695;SDS011;75243;51.138;17.370;2024-03-06T00:59:52;74.70;;;45.90;;
34695;SDS011;75243;51.138;17.370;2024-03-06T01:02:53;75.50;;;46.50;;
34695;SDS011;75243;51.138;17.370;2024-03-06T01:05:53;77.60;;;46.10;;
34695;SDS011;75243;51.138;17.370;2024-03-06T01:08:55;78.60;;;46.80;;
34695;SDS011;75243;51.138;17.370;2024-03-06T01:11:57;82.00;;;48.90;;
34695;SDS011;75243;51.138;17.370;2024-03-06T01:14:57;76.90;;;46.60;;
34695;SDS011;75243;51.138;17.370;2024-03-06T01:17:58;78.30;;;44.90;;
34695;SDS011;75243;51.138;17.370;2024-03-06T01:20:58;79.80;;;46.90;;
34695;SDS011;75243;51.138;17.370;2024-03-06T01:23:59;74.10;;;43.70;;
34695;SDS011;75243;51.138;17.370;2024-03-06T01:30:02;74.90;;;43.50;;
34695;SDS011;75243;51.138;17.370;2024-03-06T01:33:04;68.80;;;43.60;;
34695;SDS011;75243;51.138;17.370;2024-03-06T01:36:05;72.10;;;43.40;;
34695;SDS011;75243;51.138;17.370;2024-03-06T01:39:05;71.10;;;43.30;;
34695;SDS011;75243;51.138;17.370;2024-03-06T01:42:07;78.00;;;43.90;;
34695;SDS011;75243;51.138;17.370;2024-03-06T01:45:07;77.60;;;45.90;;
34695;SDS011;75243;51.138;17.370;2024-03-06T01:48:08;78.50;;;45.60;;
34695;SDS011;75243;51.138;17.370;2024-03-06T01:51:09;84.30;;;49.10;;
34695;SDS011;75243;51.138;17.370;2024-03-06T01:57:11;88.60;;;50.20;;
34695;SDS011;75243;51.138;17.370;2024-03-06T02:00:14;83.10;;;49.40;;
34695;SDS011;75243;51.138;17.370;2024-03-06T02:03:19;85.20;;;48.00;;
34695;SDS011;75243;51.138;17.370;2024-03-06T02:06:19;75.50;;;45.90;;
34695;SDS011;75243;51.138;17.370;2024-03-06T02:09:21;74.10;;;44.50;;
34695;SDS011;75243;51.138;17.370;2024-03-06T02:12:23;72.60;;;44.30;;
34695;SDS011;75243;51.138;17.370;2024-03-06T02:15:24;72.60;;;45.20;;
34695;SDS011;75243;51.138;17.370;2024-03-06T02:18:24;71.10;;;43.30;;
34695;SDS011;75243;51.138;17.370;2024-03-06T02:21:25;69.90;;;42.30;;
34695;SDS011;75243;51.138;17.370;2024-03-06T02:24:28;78.60;;;45.30;;
34695;SDS011;75243;51.138;17.370;2024-03-06T02:27:29;80.20;;;44.50;;
34695;SDS011;75243;51.138;17.370;2024-03-06T02:30:30;76.20;;;45.60;;
34695;SDS011;75243;51.138;17.370;2024-03-06T02:33:36;81.40;;;48.40;;
34695;SDS011;75243;51.138;17.370;2024-03-06T02:36:36;78.90;;;47.00;;
34695;SDS011;75243;51.138;17.370;2024-03-06T02:39:37;80.50;;;45.10;;
34695;SDS011;75243;51.138;17.370;2024-03-06T02:42:40;75.00;;;44.30;;
34695;SDS011;75243;51.138;17.370;2024-03-06T02:45:41;70.70;;;43.40;;
34695;SDS011;75243;51.138;17.370;2024-03-06T02:48:41;73.50;;;43.40;;
34695;SDS011;75243;51.138;17.370;2024-03-06T02:51:42;67.50;;;41.60;;
34695;SDS011;75243;51.138;17.370;2024-03-06T02:54:42;65.20;;;39.10;;
34695;SDS011;75243;51.138;17.370;2024-03-06T02:57:43;64.10;;;40.20;;
34695;SDS011;75243;51.138;17.370;2024-03-06T03:00:43;70.70;;;42.80;;
34695;SDS011;75243;51.138;17.370;2024-03-06T03:03:44;69.40;;;41.10;;
34695;SDS011;75243;51.138;17.370;2024-03-06T03:06:47;72.30;;;40.20;;
34695;SDS011;75243;51.138;17.370;2024-03-06T03:09:47;75.60;;;43.30;;
34695;SDS011;75243;51.138;17.370;2024-03-06T03:12:48;64.90;;;41.30;;
34695;SDS011;75243;51.138;17.370;2024-03-06T03:15:48;71.70;;;40.90;;
34695;SDS011;75243;51.138;17.370;2024-03-06T03:18:49;72.20;;;40.90;;
34695;SDS011;75243;51.138;17.370;2024-03-06T03:21:52;63.60;;;37.60;;
34695;SDS011;75243;51.138;17.370;2024-03-06T03:24:52;65.70;;;37.10;;
34695;SDS011;75243;51.138;17.370;2024-03-06T03:27:53;65.80;;;39.10;;
34695;SDS011;75243;51.138;17.370;2024-03-06T03:30:53;69.90;;;39.10;;
34695;SDS011;75243;51.138;17.370;2024-03-06T03:33:54;62.60;;;38.00;;
34695;SDS011;75243;51.138;17.370;2024-03-06T03:36:54;64.40;;;37.00;;
34695;SDS011;75243;51.138;17.370;2024-03-06T03:39:55;67.30;;;37.90;;
34695;SDS011;75243;51.138;17.370;2024-03-06T03:42:55;70.10;;;40.40;;
34695;SDS011;75243;51.138;17.370;2024-03-06T03:45:56;63.30;;;37.20;;
34695;SDS011;75243;51.138;17.370;2024-03-06T03:48:56;65.00;;;38.40;;
34695;SDS011;75243;51.138;17.370;2024-03-06T03:51:57;63.50;;;38.70;;
34695;SDS011;75243;51.138;17.370;2024-03-06T03:54:57;61.60;;;37.10;;
34695;SDS011;75243;51.138;17.370;2024-03-06T03:57:58;58.00;;;36.10;;
34695;SDS011;75243;51.138;17.370;2024-03-06T04:00:58;60.10;;;36.80;;
34695;SDS011;75243;51.138;17.370;2024-03-06T04:03:59;67.30;;;36.90;;
34695;SDS011;75243;51.138;17.370;2024-03-06T04:07:00;63.80;;;38.70;;
34695;SDS011;75243;51.138;17.370;2024-03-06T04:10:02;64.90;;;38.40;;
34695;SDS011;75243;51.138;17.370;2024-03-06T04:13:05;69.20;;;40.80;;
34695;SDS011;75243;51.138;17.370;2024-03-06T04:16:06;73.20;;;41.50;;
34695;SDS011;75243;51.138;17.370;2024-03-06T04:19:06;68.80;;;40.20;;
34695;SDS011;75243;51.138;17.370;2024-03-06T04:22:07;71.70;;;40.20;;
34695;SDS011;75243;51.138;17.370;2024-03-06T04:25:08;68.30;;;38.20;;
34695;SDS011;75243;51.138;17.370;2024-03-06T04:28:09;63.30;;;37.10;;
34695;SDS011;75243;51.138;17.370;2024-03-06T04:31:10;65.10;;;38.00;;
34695;SDS011;75243;51.138;17.370;2024-03-06T04:34:10;65.00;;;37.60;;
34695;SDS011;75243;51.138;17.370;2024-03-06T04:37:11;64.20;;;39.50;;
34695;SDS011;75243;51.138;17.370;2024-03-06T04:40:12;66.20;;;38.50;;
34695;SDS011;75243;51.138;17.370;2024-03-06T04:43:15;66.90;;;39.10;;
34695;SDS011;75243;51.138;17.370;2024-03-06T04:46:15;68.50;;;40.10;;
34695;SDS011;75243;51.138;17.370;2024-03-06T04:49:16;65.10;;;38.60;;
34695;SDS011;75243;51.138;17.370;2024-03-06T04:52:16;67.00;;;39.00;;
34695;SDS011;75243;51.138;17.370;2024-03-06T04:55:17;68.90;;;38.50;;
34695;SDS011;75243;51.138;17.370;2024-03-06T04:58:22;73.80;;;40.40;;
34695;SDS011;75243;51.138;17.370;2024-03-06T05:01:23;66.00;;;38.00;;
34695;SDS011;75243;51.138;17.370;2024-03-06T05:04:23;69.20;;;39.90;;
34695;SDS011;75243;51.138;17.370;2024-03-06T05:07:24;61.00;;;36.00;;
34695;SDS011;75243;51.138;17.370;2024-03-06T05:10:24;63.30;;;36.10;;
34695;SDS011;75243;51.138;17.370;2024-03-06T05:13:26;62.10;;;33.00;;
34695;SDS011;75243;51.138;17.370;2024-03-06T05:16:27;60.10;;;34.80;;
34695;SDS011;75243;51.138;17.370;2024-03-06T05:19:27;70.60;;;39.90;;
34695;SDS011;75243;51.138;17.370;2024-03-06T05:22:32;63.90;;;38.40;;
34695;SDS011;75243;51.138;17.370;2024-03-06T05:25:32;62.50;;;36.30;;
34695;SDS011;75243;51.138;17.370;2024-03-06T05:28:33;72.80;;;40.10;;
34695;SDS011;75243;51.138;17.370;2024-03-06T05:31:33;75.90;;;42.30;;
34695;SDS011;75243;51.138;17.370;2024-03-06T05:34:34;68.20;;;39.50;;
34695;SDS011;75243;51.138;17.370;2024-03-06T05:37:35;68.10;;;38.70;;
34695;SDS011;75243;51.138;17.370;2024-03-06T05:40:36;70.70;;;38.80;;
34695;SDS011;75243;51.138;17.370;2024-03-06T05:43:39;62.80;;;37.00;;
34695;SDS011;75243;51.138;17.370;2024-03-06T05:46:41;68.00;;;35.20;;
34695;SDS011;75243;51.138;17.370;2024-03-06T05:49:41;63.50;;;35.40;;
34695;SDS011;75243;51.138;17.370;2024-03-06T05:52:42;63.60;;;36.60;;
34695;SDS011;75243;51.138;17.370;2024-03-06T05:55:42;65.00;;;39.10;;
34695;SDS011;75243;51.138;17.370;2024-03-06T06:01:46;68.60;;;39.70;;
34695;SDS011;75243;51.138;17.370;2024-03-06T06:04:46;70.60;;;40.80;;
34695;SDS011;75243;51.138;17.370;2024-03-06T06:07:47;71.30;;;42.90;;
34695;SDS011;75243;51.138;17.370;2024-03-06T06:10:48;74.30;;;44.70;;
34695;SDS011;75243;51.138;17.370;2024-03-06T06:13:48;75.50;;;44.20;;
34695;SDS011;75243;51.138;17.370;2024-03-06T06:16:49;66.20;;;38.00;;
34695;SDS011;75243;51.138;17.370;2024-03-06T06:19:49;69.80;;;41.20;;
34695;SDS011;75243;51.138;17.370;2024-03-06T06:22:50;66.40;;;42.00;;
34695;SDS011;75243;51.138;17.370;2024-03-06T06:25:51;69.50;;;39.30;;
34695;SDS011;75243;51.138;17.370;2024-03-06T06:31:52;63.30;;;39.50;;
34695;SDS011;75243;51.138;17.370;2024-03-06T06:34:53;67.20;;;40.50;;
34695;SDS011;75243;51.138;17.370;2024-03-06T06:37:53;63.30;;;38.30;;
34695;SDS011;75243;51.138;17.370;2024-03-06T06:40:54;67.50;;;41.00;;
34695;SDS011;75243;51.138;17.370;2024-03-06T06:43:55;67.90;;;41.20;;
34695;SDS011;75243;51.138;17.370;2024-03-06T06:46:56;68.40;;;41.80;;
34695;SDS011;75243;51.138;17.370;2024-03-06T06:49:57;66.60;;;42.30;;
34695;SDS011;75243;51.138;17.370;2024-03-06T06:52:57;67.80;;;41.10;;
34695;SDS011;75243;51.138;17.370;2024-03-06T06:55:59;65.60;;;40.70;;
34695;SDS011;75243;51.138;17.370;2024-03-06T06:59:00;65.90;;;39.90;;
34695;SDS011;75243;51.138;17.370;2024-03-06T07:02:01;66.90;;;41.30;;
34695;SDS011;75243;51.138;17.370;2024-03-06T07:05:03;74.60;;;42.00;;
34695;SDS011;75243;51.138;17.370;2024-03-06T07:08:08;71.90;;;42.60;;
34695;SDS011;75243;51.138;17.370;2024-03-06T07:11:09;77.30;;;44.50;;
34695;SDS011;75243;51.138;17.370;2024-03-06T07:14:14;78.40;;;45.50;;
34695;SDS011;75243;51.138;17.370;2024-03-06T07:17:17;80.00;;;43.80;;
34695;SDS011;75243;51.138;17.370;2024-03-06T07:20:18;83.90;;;44.40;;
34695;SDS011;75243;51.138;17.370;2024-03-06T07:23:18;78.40;;;45.00;;
34695;SDS011;75243;51.138;17.370;2024-03-06T07:26:19;89.30;;;46.60;;
34695;SDS011;75243;51.138;17.370;2024-03-06T07:32:20;85.20;;;44.20;;
34695;SDS011;75243;51.138;17.370;2024-03-06T07:35:21;81.90;;;45.50;;
34695;SDS011;75243;51.138;17.370;2024-03-06T07:38:21;75.70;;;43.80;;
34695;SDS011;75243;51.138;17.370;2024-03-06T07:41:24;75.20;;;43.30;;
34695;SDS011;75243;51.138;17.370;2024-03-06T07:44:24;70.60;;;43.60;;
34695;SDS011;75243;51.138;17.370;2024-03-06T07:47:25;71.80;;;43.40;;
34695;SDS011;75243;51.138;17.370;2024-03-06T07:50:26;78.70;;;44.30;;
34695;SDS011;75243;51.138;17.370;2024-03-06T07:53:27;67.80;;;40.50;;
34695;SDS011;75243;51.138;17.370;2024-03-06T07:56:28;76.20;;;44.90;;
34695;SDS011;75243;51.138;17.370;2024-03-06T07:59:28;77.10;;;45.30;;
34695;SDS011;75243;51.138;17.370;2024-03-06T08:02:29;71.20;;;43.50;;
34695;SDS011;75243;51.138;17.370;2024-03-06T08:05:30;76.20;;;43.60;;
34695;SDS011;75243;51.138;17.370;2024-03-06T08:08:32;78.80;;;44.60;;
34695;SDS011;75243;51.138;17.370;2024-03-06T08:14:41;57.70;;;36.80;;
34695;SDS011;75243;51.138;17.370;2024-03-06T08:17:43;61.50;;;39.50;;
34695;SDS011;75243;51.138;17.370;2024-03-06T08:20:47;53.20;;;35.60;;
34695;SDS011;75243;51.138;17.370;2024-03-06T08:23:47;61.50;;;41.00;;
34695;SDS011;75243;51.138;17.370;2024-03-06T08:26:49;59.40;;;40.50;;
34695;SDS011;75243;51.138;17.370;2024-03-06T08:29:50;59.90;;;39.40;;
34695;SDS011;75243;51.138;17.370;2024-03-06T08:32:50;55.10;;;38.10;;
34695;SDS011;75243;51.138;17.370;2024-03-06T08:35:51;53.20;;;35.40;;
34695;SDS011;75243;51.138;17.370;2024-03-06T08:38:52;45.50;;;29.90;;
34695;SDS011;75243;51.138;17.370;2024-03-06T08:41:52;46.20;;;30.60;;
34695;SDS011;75243;51.138;17.370;2024-03-06T08:44:53;45.00;;;30.20;;
34695;SDS011;75243;51.138;17.370;2024-03-06T08:48:03;30.30;;;21.40;;
34695;SDS011;75243;51.138;17.370;2024-03-06T08:51:05;34.10;;;23.10;;
34695;SDS011;75243;51.138;17.370;2024-03-06T08:54:10;34.00;;;22.40;;
34695;SDS011;75243;51.138;17.370;2024-03-06T08:57:14;36.50;;;25.00;;
34695;SDS011;75243;51.138;17.370;2024-03-06T09:00:16;34.30;;;23.80;;
34695;SDS011;75243;51.138;17.370;2024-03-06T09:03:17;36.40;;;23.80;;
34695;SDS011;75243;51.138;17.370;2024-03-06T09:06:18;31.30;;;22.80;;
34695;SDS011;75243;51.138;17.370;2024-03-06T09:09:21;35.40;;;23.70;;
34695;SDS011;75243;51.138;17.370;2024-03-06T09:15:25;26.80;;;17.50;;
34695;SDS011;75243;51.138;17.370;2024-03-06T09:18:26;28.00;;;20.40;;
34695;SDS011;75243;51.138;17.370;2024-03-06T09:21:27;24.40;;;17.50;;
34695;SDS011;75243;51.138;17.370;2024-03-06T09:24:28;21.60;;;16.50;;
34695;SDS011;75243;51.138;17.370;2024-03-06T09:27:29;23.80;;;17.90;;
34695;SDS011;75243;51.138;17.370;2024-03-06T09:30:35;23.00;;;17.30;;
34695;SDS011;75243;51.138;17.370;2024-03-06T09:33:35;22.10;;;16.30;;
34695;SDS011;75243;51.138;17.370;2024-03-06T09:39:36;21.60;;;15.70;;
34695;SDS011;75243;51.138;17.370;2024-03-06T09:45:38;23.00;;;15.90;;
34695;SDS011;75243;51.138;17.370;2024-03-06T09:48:48;24.50;;;16.60;;
34695;SDS011;75243;51.138;17.370;2024-03-06T09:51:53;23.70;;;17.10;;
34695;SDS011;75243;51.138;17.370;2024-03-06T09:54:55;28.10;;;18.20;;
34695;SDS011;75243;51.138;17.370;2024-03-06T09:57:57;27.70;;;18.60;;
34695;SDS011;75243;51.138;17.370;2024-03-06T10:04:14;30.20;;;19.80;;
34695;SDS011;75243;51.138;17.370;2024-03-06T10:07:24;39.00;;;24.50;;
34695;SDS011;75243;51.138;17.370;2024-03-06T10:10:26;34.00;;;21.70;;
34695;SDS011;75243;51.138;17.370;2024-03-06T10:13:27;32.90;;;20.30;;
34695;SDS011;75243;51.138;17.370;2024-03-06T10:16:29;27.70;;;17.90;;
34695;SDS011;75243;51.138;17.370;2024-03-06T10:19:29;24.30;;;16.00;;
34695;SDS011;75243;51.138;17.370;2024-03-06T10:22:34;22.70;;;16.20;;
34695;SDS011;75243;51.138;17.370;2024-03-06T10:25:34;27.20;;;17.90;;
34695;SDS011;75243;51.138;17.370;2024-03-06T10:34:37;30.10;;;19.30;;
34695;SDS011;75243;51.138;17.370;2024-03-06T10:37:43;34.60;;;20.40;;
34695;SDS011;75243;51.138;17.370;2024-03-06T10:40:46;25.40;;;17.40;;
34695;SDS011;75243;51.138;17.370;2024-03-06T10:43:47;25.60;;;17.10;;
34695;SDS011;75243;51.138;17.370;2024-03-06T10:46:59;24.60;;;16.40;;
34695;SDS011;75243;51.138;17.370;2024-03-06T10:50:06;23.80;;;16.70;;
34695;SDS011;75243;51.138;17.370;2024-03-06T10:53:15;24.70;;;16.70;;
34695;SDS011;75243;51.138;17.370;2024-03-06T10:56:21;27.10;;;17.70;;
34695;SDS011;75243;51.138;17.370;2024-03-06T10:59:26;31.10;;;20.10;;
34695;SDS011;75243;51.138;17.370;2024-03-06T11:02:28;33.50;;;21.40;;
34695;SDS011;75243;51.138;17.370;2024-03-06T11:05:30;36.40;;;23.10;;
34695;SDS011;75243;51.138;17.370;2024-03-06T11:08:30;28.40;;;19.50;;
34695;SDS011;75243;51.138;17.370;2024-03-06T11:11:39;28.50;;;19.40;;
34695;SDS011;75243;51.138;17.370;2024-03-06T11:14:51;41.00;;;25.30;;
34695;SDS011;75243;51.138;17.370;2024-03-06T11:17:56;26.20;;;18.40;;
34695;SDS011;75243;51.138;17.370;2024-03-06T11:27:12;30.90;;;19.50;;
34695;SDS011;75243;51.138;17.370;2024-03-06T11:30:18;27.30;;;19.20;;
34695;SDS011;75243;51.138;17.370;2024-03-06T11:33:21;58.90;;;38.80;;
34695;SDS011;75243;51.138;17.370;2024-03-06T11:36:22;43.90;;;29.80;;
34695;SDS011;75243;51.138;17.370;2024-03-06T11:39:33;31.00;;;21.20;;
34695;SDS011;75243;51.138;17.370;2024-03-06T11:42:37;28.40;;;19.90;;
34695;SDS011;75243;51.138;17.370;2024-03-06T11:45:45;29.80;;;19.90;;
34695;SDS011;75243;51.138;17.370;2024-03-06T11:48:53;28.90;;;19.50;;
34695;SDS011;75243;51.138;17.370;2024-03-06T11:51:56;26.10;;;19.30;;
34695;SDS011;75243;51.138;17.370;2024-03-06T11:55:01;27.70;;;16.20;;
34695;SDS011;75243;51.138;17.370;2024-03-06T11:58:02;23.30;;;14.80;;
34695;SDS011;75243;51.138;17.370;2024-03-06T12:01:03;21.00;;;14.80;;
34695;SDS011;75243;51.138;17.370;2024-03-06T12:04:09;19.90;;;13.30;;
34695;SDS011;75243;51.138;17.370;2024-03-06T12:07:10;22.40;;;14.10;;
34695;SDS011;75243;51.138;17.370;2024-03-06T12:10:10;25.80;;;15.70;;
34695;SDS011;75243;51.138;17.370;2024-03-06T12:13:11;27.00;;;16.60;;
34695;SDS011;75243;51.138;17.370;2024-03-06T12:16:12;22.80;;;15.50;;
34695;SDS011;75243;51.138;17.370;2024-03-06T12:19:12;19.90;;;13.40;;
34695;SDS011;75243;51.138;17.370;2024-03-06T12:26:01;24.70;;;16.40;;
34695;SDS011;75243;51.138;17.370;2024-03-06T12:28:39;24.90;;;15.80;;
34695;SDS011;75243;51.138;17.370;2024-03-06T12:35:00;28.30;;;15.70;;
34695;SDS011;75243;51.138;17.370;2024-03-06T12:38:06;23.10;;;14.80;;
34695;SDS011;75243;51.138;17.370;2024-03-06T12:41:14;22.90;;;15.50;;
34695;SDS011;75243;51.138;17.370;2024-03-06T12:44:15;24.40;;;16.40;;
34695;SDS011;75243;51.138;17.370;2024-03-06T12:47:18;26.40;;;16.10;;
34695;SDS011;75243;51.138;17.370;2024-03-06T12:50:19;28.50;;;18.00;;
34695;SDS011;75243;51.138;17.370;2024-03-06T12:53:23;26.70;;;16.80;;
34695;SDS011;75243;51.138;17.370;2024-03-06T12:56:24;23.40;;;15.30;;
34695;SDS011;75243;51.138;17.370;2024-03-06T12:59:25;20.70;;;12.90;;
34695;SDS011;75243;51.138;17.370;2024-03-06T13:02:26;22.20;;;15.30;;
34695;SDS011;75243;51.138;17.370;2024-03-06T13:08:27;24.20;;;14.70;;
34695;SDS011;75243;51.138;17.370;2024-03-06T13:11:27;29.60;;;15.20;;
34695;SDS011;75243;51.138;17.370;2024-03-06T13:14:28;24.00;;;15.60;;
34695;SDS011;75243;51.138;17.370;2024-03-06T13:17:28;24.50;;;16.30;;
34695;SDS011;75243;51.138;17.370;2024-03-06T13:20:30;29.80;;;18.10;;
34695;SDS011;75243;51.138;17.370;2024-03-06T13:23:31;25.30;;;16.60;;
34695;SDS011;75243;51.138;17.370;2024-03-06T13:26:31;25.30;;;17.10;;
34695;SDS011;75243;51.138;17.370;2024-03-06T13:29:32;27.30;;;16.60;;
34695;SDS011;75243;51.138;17.370;2024-03-06T13:32:32;31.10;;;18.10;;
34695;SDS011;75243;51.138;17.370;2024-03-06T13:38:33;31.60;;;19.60;;
34695;SDS011;75243;51.138;17.370;2024-03-06T13:41:34;36.40;;;21.10;;
34695;SDS011;75243;51.138;17.370;2024-03-06T13:44:35;37.40;;;21.70;;
34695;SDS011;75243;51.138;17.370;2024-03-06T13:47:36;35.20;;;22.80;;
34695;SDS011;75243;51.138;17.370;2024-03-06T13:50:39;33.40;;;20.20;;
34695;SDS011;75243;51.138;17.370;2024-03-06T13:53:40;38.10;;;22.30;;
34695;SDS011;75243;51.138;17.370;2024-03-06T13:56:40;33.20;;;20.00;;
34695;SDS011;75243;51.138;17.370;2024-03-06T13:59:42;29.80;;;18.60;;
34695;SDS011;75243;51.138;17.370;2024-03-06T14:02:46;31.90;;;19.20;;
34695;SDS011;75243;51.138;17.370;2024-03-06T14:05:49;30.40;;;19.30;;
34695;SDS011;75243;51.138;17.370;2024-03-06T14:08:50;28.30;;;19.20;;
34695;SDS011;75243;51.138;17.370;2024-03-06T14:11:51;34.30;;;20.10;;
34695;SDS011;75243;51.138;17.370;2024-03-06T14:14:52;40.50;;;22.30;;
34695;SDS011;75243;51.138;17.370;2024-03-06T14:17:58;45.40;;;22.30;;
34695;SDS011;75243;51.138;17.370;2024-03-06T14:23:59;36.30;;;22.40;;
34695;SDS011;75243;51.138;17.370;2024-03-06T14:27:03;49.70;;;26.40;;
34695;SDS011;75243;51.138;17.370;2024-03-06T14:30:06;47.20;;;28.20;;
34695;SDS011;75243;51.138;17.370;2024-03-06T14:33:07;47.60;;;26.20;;
34695;SDS011;75243;51.138;17.370;2024-03-06T14:36:08;79.40;;;39.60;;
34695;SDS011;75243;51.138;17.370;2024-03-06T14:39:08;46.00;;;28.90;;
34695;SDS011;75243;51.138;17.370;2024-03-06T14:42:11;39.80;;;23.20;;
34695;SDS011;75243;51.138;17.370;2024-03-06T14:45:12;38.80;;;22.50;;
34695;SDS011;75243;51.138;17.370;2024-03-06T14:48:12;31.00;;;21.10;;
34695;SDS011;75243;51.138;17.370;2024-03-06T14:51:13;30.60;;;18.50;;
34695;SDS011;75243;51.138;17.370;2024-03-06T14:54:14;31.10;;;19.10;;
34695;SDS011;75243;51.138;17.370;2024-03-06T14:57:15;30.10;;;20.40;;
34695;SDS011;75243;51.138;17.370;2024-03-06T15:00:16;36.10;;;21.90;;
34695;SDS011;75243;51.138;17.370;2024-03-06T15:03:21;38.40;;;20.60;;
34695;SDS011;75243;51.138;17.370;2024-03-06T15:06:22;36.50;;;19.30;;
34695;SDS011;75243;51.138;17.370;2024-03-06T15:12:26;38.60;;;23.70;;
34695;SDS011;75243;51.138;17.370;2024-03-06T15:15:26;47.80;;;30.30;;
34695;SDS011;75243;51.138;17.370;2024-03-06T15:18:27;43.10;;;26.50;;
34695;SDS011;75243;51.138;17.370;2024-03-06T15:21:27;38.90;;;24.60;;
34695;SDS011;75243;51.138;17.370;2024-03-06T15:24:28;45.80;;;28.90;;
34695;SDS011;75243;51.138;17.370;2024-03-06T15:27:28;44.90;;;25.70;;
34695;SDS011;75243;51.138;17.370;2024-03-06T15:30:29;38.90;;;21.70;;
34695;SDS011;75243;51.138;17.370;2024-03-06T15:33:32;37.40;;;21.70;;
34695;SDS011;75243;51.138;17.370;2024-03-06T15:36:33;35.20;;;22.10;;
34695;SDS011;75243;51.138;17.370;2024-03-06T15:39:33;41.80;;;23.90;;
34695;SDS011;75243;51.138;17.370;2024-03-06T15:42:34;33.90;;;21.70;;
34695;SDS011;75243;51.138;17.370;2024-03-06T15:45:40;36.80;;;22.30;;
34695;SDS011;75243;51.138;17.370;2024-03-06T15:48:41;34.20;;;21.10;;
34695;SDS011;75243;51.138;17.370;2024-03-06T15:51:41;30.30;;;20.10;;
34695;SDS011;75243;51.138;17.370;2024-03-06T15:54:42;35.00;;;22.00;;
34695;SDS011;75243;51.138;17.370;2024-03-06T15:57:42;35.70;;;21.70;;
34695;SDS011;75243;51.138;17.370;2024-03-06T16:00:44;35.90;;;21.80;;
34695;SDS011;75243;51.138;17.370;2024-03-06T16:06:45;37.40;;;22.50;;
34695;SDS011;75243;51.138;17.370;2024-03-06T16:09:46;36.60;;;21.80;;
34695;SDS011;75243;51.138;17.370;2024-03-06T16:15:47;37.80;;;22.00;;
34695;SDS011;75243;51.138;17.370;2024-03-06T16:18:50;34.50;;;22.90;;
34695;SDS011;75243;51.138;17.370;2024-03-06T16:24:52;35.60;;;20.80;;
34695;SDS011;75243;51.138;17.370;2024-03-06T16:27:52;38.80;;;22.50;;
34695;SDS011;75243;51.138;17.370;2024-03-06T16:30:53;37.10;;;22.80;;
34695;SDS011;75243;51.138;17.370;2024-03-06T16:33:54;40.70;;;23.90;;
34695;SDS011;75243;51.138;17.370;2024-03-06T16:36:58;37.20;;;22.20;;
34695;SDS011;75243;51.138;17.370;2024-03-06T16:40:03;36.20;;;22.00;;
34695;SDS011;75243;51.138;17.370;2024-03-06T16:43:10;37.60;;;21.50;;
34695;SDS011;75243;51.138;17.370;2024-03-06T16:46:11;59.50;;;30.50;;
34695;SDS011;75243;51.138;17.370;2024-03-06T16:49:11;44.20;;;25.50;;
34695;SDS011;75243;51.138;17.370;2024-03-06T16:52:16;37.00;;;22.50;;
34695;SDS011;75243;51.138;17.370;2024-03-06T16:55:17;39.30;;;25.30;;
34695;SDS011;75243;51.138;17.370;2024-03-06T16:58:17;37.40;;;23.80;;
34695;SDS011;75243;51.138;17.370;2024-03-06T17:01:18;36.00;;;22.80;;
34695;SDS011;75243;51.138;17.370;2024-03-06T17:04:19;36.90;;;23.50;;
34695;SDS011;75243;51.138;17.370;2024-03-06T17:10:20;43.10;;;26.10;;
34695;SDS011;75243;51.138;17.370;2024-03-06T17:13:21;43.10;;;25.30;;
34695;SDS011;75243;51.138;17.370;2024-03-06T17:16:22;38.90;;;25.40;;
34695;SDS011;75243;51.138;17.370;2024-03-06T17:22:23;42.90;;;26.90;;
34695;SDS011;75243;51.138;17.370;2024-03-06T17:25:24;40.10;;;26.10;;
34695;SDS011;75243;51.138;17.370;2024-03-06T17:28:24;43.60;;;26.80;;
34695;SDS011;75243;51.138;17.370;2024-03-06T17:31:25;42.00;;;26.50;;
34695;SDS011;75243;51.138;17.370;2024-03-06T17:34:25;42.40;;;27.30;;
34695;SDS011;75243;51.138;17.370;2024-03-06T17:37:26;44.70;;;28.50;;
34695;SDS011;75243;51.138;17.370;2024-03-06T17:40:27;45.40;;;26.90;;
34695;SDS011;75243;51.138;17.370;2024-03-06T17:43:27;43.90;;;27.80;;
34695;SDS011;75243;51.138;17.370;2024-03-06T17:46:29;44.60;;;26.90;;
34695;SDS011;75243;51.138;17.370;2024-03-06T17:49:31;44.70;;;26.20;;
34695;SDS011;75243;51.138;17.370;2024-03-06T17:52:31;44.90;;;27.20;;
34695;SDS011;75243;51.138;17.370;2024-03-06T17:55:32;49.40;;;27.80;;
34695;SDS011;75243;51.138;17.370;2024-03-06T17:58:33;50.20;;;28.70;;
34695;SDS011;75243;51.138;17.370;2024-03-06T18:01:33;57.00;;;28.70;;
34695;SDS011;75243;51.138;17.370;2024-03-06T18:04:34;50.70;;;28.60;;
34695;SDS011;75243;51.138;17.370;2024-03-06T18:10:35;51.20;;;29.10;;
34695;SDS011;75243;51.138;17.370;2024-03-06T18:13:36;52.50;;;28.60;;
34695;SDS011;75243;51.138;17.370;2024-03-06T18:16:37;57.90;;;31.30;;
34695;SDS011;75243;51.138;17.370;2024-03-06T18:19:37;59.50;;;33.50;;
34695;SDS011;75243;51.138;17.370;2024-03-06T18:22:38;62.00;;;34.00;;
34695;SDS011;75243;51.138;17.370;2024-03-06T18:25:41;72.40;;;39.80;;
34695;SDS011;75243;51.138;17.370;2024-03-06T18:28:42;71.80;;;38.50;;
34695;SDS011;75243;51.138;17.370;2024-03-06T18:31:43;69.60;;;37.90;;
34695;SDS011;75243;51.138;17.370;2024-03-06T18:34:44;66.40;;;36.00;;
34695;SDS011;75243;51.138;17.370;2024-03-06T18:37:47;67.00;;;36.70;;
34695;SDS011;75243;51.138;17.370;2024-03-06T18:40:49;69.70;;;36.90;;
34695;SDS011;75243;51.138;17.370;2024-03-06T18:43:50;69.30;;;36.10;;
34695;SDS011;75243;51.138;17.370;2024-03-06T18:46:50;68.50;;;36.60;;
34695;SDS011;75243;51.138;17.370;2024-03-06T18:49:51;68.30;;;37.60;;